sensor_id;sensor_type;location;lat;lon;timestamp;P1;durP1;ratioP1;P2;durP2;ratioP2
13868;SDS011;7004;48.206;16.402;2023-07-29T00:02:14;4.07;;;3.03;;
13868;SDS011;7004;48.206;16.402;2023-07-29T00:04:40;3.00;;;2.50;;
13868;SDS011;7004;48.206;16.402;2023-07-29T00:07:06;3.43;;;3.00;;
13868;SDS011;7004;48.206;16.402;2023-07-29T00:09:32;3.43;;;2.73;;
13868;SDS011;7004;48.206;16.402;2023-07-29T00:11:58;3.80;;;2.80;;
13868;SDS011;7004;48.206;16.402;2023-07-29T00:14:24;3.70;;;3.10;;
13868;SDS011;7004;48.206;16.402;2023-07-29T00:16:51;3.10;;;2.73;;
13868;SDS011;7004;48.206;16.402;2023-07-29T00:19:17;3.20;;;2.90;;
13868;SDS011;7004;48.206;16.402;2023-07-29T00:21:43;4.97;;;3.13;;
13868;SDS011;7004;48.206;16.402;2023-07-29T00:24:09;2.73;;;2.53;;
13868;SDS011;7004;48.206;16.402;2023-07-29T00:26:35;3.07;;;2.77;;
13868;SDS011;7004;48.206;16.402;2023-07-29T00:29:01;3.60;;;3.20;;
13868;SDS011;7004;48.206;16.402;2023-07-29T00:31:27;3.17;;;2.67;;
13868;SDS011;7004;48.206;16.402;2023-07-29T00:33:53;3.13;;;2.83;;
13868;SDS011;7004;48.206;16.402;2023-07-29T00:36:19;3.73;;;2.93;;
13868;SDS011;7004;48.206;16.402;2023-07-29T00:38:45;3.53;;;2.67;;
13868;SDS011;7004;48.206;16.402;2023-07-29T00:41:12;5.90;;;2.80;;
13868;SDS011;7004;48.206;16.402;2023-07-29T00:43:39;5.33;;;3.13;;
13868;SDS011;7004;48.206;16.402;2023-07-29T00:46:05;3.20;;;2.70;;
13868;SDS011;7004;48.206;16.402;2023-07-29T00:48:34;3.57;;;2.63;;
13868;SDS011;7004;48.206;16.402;2023-07-29T00:51:00;3.83;;;2.60;;
13868;SDS011;7004;48.206;16.402;2023-07-29T00:53:26;3.37;;;3.00;;
13868;SDS011;7004;48.206;16.402;2023-07-29T00:55:52;3.10;;;2.47;;
13868;SDS011;7004;48.206;16.402;2023-07-29T00:58:18;3.03;;;2.47;;
13868;SDS011;7004;48.206;16.402;2023-07-29T01:00:45;3.40;;;3.10;;
13868;SDS011;7004;48.206;16.402;2023-07-29T01:03:11;3.50;;;3.20;;
13868;SDS011;7004;48.206;16.402;2023-07-29T01:05:40;3.00;;;2.70;;
13868;SDS011;7004;48.206;16.402;2023-07-29T01:08:33;3.47;;;2.90;;
13868;SDS011;7004;48.206;16.402;2023-07-29T01:17:22;3.73;;;2.90;;
13868;SDS011;7004;48.206;16.402;2023-07-29T01:20:03;4.77;;;2.93;;
13868;SDS011;7004;48.206;16.402;2023-07-29T01:22:51;3.03;;;2.50;;
13868;SDS011;7004;48.206;16.402;2023-07-29T01:25:17;3.20;;;2.80;;
13868;SDS011;7004;48.206;16.402;2023-07-29T01:27:44;3.20;;;2.90;;
13868;SDS011;7004;48.206;16.402;2023-07-29T01:30:12;3.43;;;3.03;;
13868;SDS011;7004;48.206;16.402;2023-07-29T01:38:03;3.13;;;2.83;;
13868;SDS011;7004;48.206;16.402;2023-07-29T01:40:44;3.53;;;2.80;;
13868;SDS011;7004;48.206;16.402;2023-07-29T01:43:11;4.50;;;2.83;;
13868;SDS011;7004;48.206;16.402;2023-07-29T01:45:38;3.20;;;2.90;;
13868;SDS011;7004;48.206;16.402;2023-07-29T01:48:05;3.13;;;2.83;;
13868;SDS011;7004;48.206;16.402;2023-07-29T01:50:33;3.67;;;2.97;;
13868;SDS011;7004;48.206;16.402;2023-07-29T01:53:00;3.80;;;2.80;;
13868;SDS011;7004;48.206;16.402;2023-07-29T01:55:28;3.87;;;3.10;;
13868;SDS011;7004;48.206;16.402;2023-07-29T01:57:55;6.37;;;3.30;;
13868;SDS011;7004;48.206;16.402;2023-07-29T02:00:21;3.30;;;3.00;;
13868;SDS011;7004;48.206;16.402;2023-07-29T02:02:47;3.60;;;3.07;;
13868;SDS011;7004;48.206;16.402;2023-07-29T02:05:15;5.47;;;2.87;;
13868;SDS011;7004;48.206;16.402;2023-07-29T02:07:41;4.10;;;3.03;;
13868;SDS011;7004;48.206;16.402;2023-07-29T02:10:07;3.53;;;3.13;;
13868;SDS011;7004;48.206;16.402;2023-07-29T02:12:35;3.73;;;3.00;;
13868;SDS011;7004;48.206;16.402;2023-07-29T02:15:01;3.87;;;3.00;;
13868;SDS011;7004;48.206;16.402;2023-07-29T02:17:30;3.30;;;2.87;;
13868;SDS011;7004;48.206;16.402;2023-07-29T02:20:00;2.43;;;2.23;;
13868;SDS011;7004;48.206;16.402;2023-07-29T02:22:26;3.60;;;2.60;;
13868;SDS011;7004;48.206;16.402;2023-07-29T02:24:53;3.20;;;2.73;;
13868;SDS011;7004;48.206;16.402;2023-07-29T02:27:19;3.03;;;2.70;;
13868;SDS011;7004;48.206;16.402;2023-07-29T02:29:45;3.33;;;2.90;;
13868;SDS011;7004;48.206;16.402;2023-07-29T02:32:11;3.47;;;2.80;;
13868;SDS011;7004;48.206;16.402;2023-07-29T02:34:37;2.80;;;2.50;;
13868;SDS011;7004;48.206;16.402;2023-07-29T02:37:03;2.60;;;2.40;;
13868;SDS011;7004;48.206;16.402;2023-07-29T02:39:30;3.23;;;2.53;;
13868;SDS011;7004;48.206;16.402;2023-07-29T02:41:56;3.10;;;2.60;;
13868;SDS011;7004;48.206;16.402;2023-07-29T02:44:23;4.27;;;2.50;;
13868;SDS011;7004;48.206;16.402;2023-07-29T02:46:50;2.57;;;2.27;;
13868;SDS011;7004;48.206;16.402;2023-07-29T02:49:17;3.13;;;2.40;;
13868;SDS011;7004;48.206;16.402;2023-07-29T02:51:43;2.53;;;2.30;;
13868;SDS011;7004;48.206;16.402;2023-07-29T02:54:09;3.73;;;2.33;;
13868;SDS011;7004;48.206;16.402;2023-07-29T02:56:35;2.67;;;2.47;;
13868;SDS011;7004;48.206;16.402;2023-07-29T02:59:01;2.70;;;2.50;;
13868;SDS011;7004;48.206;16.402;2023-07-29T03:01:28;2.70;;;2.50;;
13868;SDS011;7004;48.206;16.402;2023-07-29T03:03:54;2.20;;;2.00;;
13868;SDS011;7004;48.206;16.402;2023-07-29T03:06:20;3.23;;;2.23;;
13868;SDS011;7004;48.206;16.402;2023-07-29T03:08:47;2.10;;;1.90;;
13868;SDS011;7004;48.206;16.402;2023-07-29T03:11:14;2.10;;;1.90;;
13868;SDS011;7004;48.206;16.402;2023-07-29T03:13:42;2.37;;;1.97;;
13868;SDS011;7004;48.206;16.402;2023-07-29T03:16:12;2.60;;;2.20;;
13868;SDS011;7004;48.206;16.402;2023-07-29T03:18:43;2.83;;;2.07;;
13868;SDS011;7004;48.206;16.402;2023-07-29T03:21:10;2.53;;;2.20;;
13868;SDS011;7004;48.206;16.402;2023-07-29T03:23:37;2.33;;;2.00;;
13868;SDS011;7004;48.206;16.402;2023-07-29T03:26:04;2.97;;;2.10;;
13868;SDS011;7004;48.206;16.402;2023-07-29T03:28:37;2.10;;;1.90;;
13868;SDS011;7004;48.206;16.402;2023-07-29T03:31:08;2.63;;;2.40;;
13868;SDS011;7004;48.206;16.402;2023-07-29T03:33:36;2.13;;;1.93;;
13868;SDS011;7004;48.206;16.402;2023-07-29T03:36:02;2.37;;;2.03;;
13868;SDS011;7004;48.206;16.402;2023-07-29T03:38:28;2.00;;;1.80;;
13868;SDS011;7004;48.206;16.402;2023-07-29T03:40:54;2.60;;;2.10;;
13868;SDS011;7004;48.206;16.402;2023-07-29T03:43:21;1.63;;;1.53;;
13868;SDS011;7004;48.206;16.402;2023-07-29T03:45:47;2.00;;;1.80;;
13868;SDS011;7004;48.206;16.402;2023-07-29T03:48:13;2.07;;;1.83;;
13868;SDS011;7004;48.206;16.402;2023-07-29T03:50:39;2.83;;;2.10;;
13868;SDS011;7004;48.206;16.402;2023-07-29T03:53:05;1.77;;;1.67;;
13868;SDS011;7004;48.206;16.402;2023-07-29T03:55:31;2.13;;;1.93;;
13868;SDS011;7004;48.206;16.402;2023-07-29T03:57:58;2.23;;;2.03;;
13868;SDS011;7004;48.206;16.402;2023-07-29T04:00:25;2.10;;;1.90;;
13868;SDS011;7004;48.206;16.402;2023-07-29T04:02:52;2.50;;;2.30;;
13868;SDS011;7004;48.206;16.402;2023-07-29T04:05:18;2.10;;;1.90;;
13868;SDS011;7004;48.206;16.402;2023-07-29T04:07:44;2.63;;;2.10;;
13868;SDS011;7004;48.206;16.402;2023-07-29T04:10:10;2.27;;;2.07;;
13868;SDS011;7004;48.206;16.402;2023-07-29T04:12:37;2.40;;;2.20;;
13868;SDS011;7004;48.206;16.402;2023-07-29T04:15:03;2.03;;;1.73;;
13868;SDS011;7004;48.206;16.402;2023-07-29T04:17:30;1.80;;;1.70;;
13868;SDS011;7004;48.206;16.402;2023-07-29T04:19:55;3.47;;;2.07;;
13868;SDS011;7004;48.206;16.402;2023-07-29T04:22:22;2.13;;;1.93;;
13868;SDS011;7004;48.206;16.402;2023-07-29T04:24:48;2.40;;;2.13;;
13868;SDS011;7004;48.206;16.402;2023-07-29T04:27:14;2.30;;;2.00;;
13868;SDS011;7004;48.206;16.402;2023-07-29T04:29:40;2.10;;;1.90;;
13868;SDS011;7004;48.206;16.402;2023-07-29T04:32:06;2.23;;;2.03;;
13868;SDS011;7004;48.206;16.402;2023-07-29T04:34:32;2.77;;;2.00;;
13868;SDS011;7004;48.206;16.402;2023-07-29T04:36:58;2.70;;;1.90;;
13868;SDS011;7004;48.206;16.402;2023-07-29T04:39:24;2.30;;;2.10;;
13868;SDS011;7004;48.206;16.402;2023-07-29T04:41:51;2.17;;;1.97;;
13868;SDS011;7004;48.206;16.402;2023-07-29T04:44:17;2.17;;;1.97;;
13868;SDS011;7004;48.206;16.402;2023-07-29T04:46:43;2.40;;;2.20;;
13868;SDS011;7004;48.206;16.402;2023-07-29T04:49:09;2.33;;;2.13;;
13868;SDS011;7004;48.206;16.402;2023-07-29T04:51:35;2.63;;;2.33;;
13868;SDS011;7004;48.206;16.402;2023-07-29T04:54:02;2.93;;;2.20;;
13868;SDS011;7004;48.206;16.402;2023-07-29T04:56:28;2.80;;;2.20;;
13868;SDS011;7004;48.206;16.402;2023-07-29T04:58:54;2.87;;;2.20;;
13868;SDS011;7004;48.206;16.402;2023-07-29T05:01:20;2.37;;;2.03;;
13868;SDS011;7004;48.206;16.402;2023-07-29T05:03:46;2.47;;;2.13;;
13868;SDS011;7004;48.206;16.402;2023-07-29T05:06:12;2.93;;;2.03;;
13868;SDS011;7004;48.206;16.402;2023-07-29T05:08:39;2.63;;;2.23;;
13868;SDS011;7004;48.206;16.402;2023-07-29T05:11:05;2.40;;;2.20;;
13868;SDS011;7004;48.206;16.402;2023-07-29T05:13:31;2.27;;;1.80;;
13868;SDS011;7004;48.206;16.402;2023-07-29T05:15:57;2.03;;;1.83;;
13868;SDS011;7004;48.206;16.402;2023-07-29T05:18:23;2.10;;;1.90;;
13868;SDS011;7004;48.206;16.402;2023-07-29T05:20:49;2.10;;;1.90;;
13868;SDS011;7004;48.206;16.402;2023-07-29T05:23:15;4.17;;;2.07;;
13868;SDS011;7004;48.206;16.402;2023-07-29T05:25:41;2.17;;;1.87;;
13868;SDS011;7004;48.206;16.402;2023-07-29T05:28:07;2.80;;;2.23;;
13868;SDS011;7004;48.206;16.402;2023-07-29T05:30:33;2.00;;;1.80;;
13868;SDS011;7004;48.206;16.402;2023-07-29T05:33:03;2.47;;;2.10;;
13868;SDS011;7004;48.206;16.402;2023-07-29T05:35:29;2.20;;;1.70;;
13868;SDS011;7004;48.206;16.402;2023-07-29T05:37:56;2.63;;;2.20;;
13868;SDS011;7004;48.206;16.402;2023-07-29T05:40:22;3.10;;;1.93;;
13868;SDS011;7004;48.206;16.402;2023-07-29T05:42:48;2.30;;;1.80;;
13868;SDS011;7004;48.206;16.402;2023-07-29T05:45:14;2.20;;;1.83;;
13868;SDS011;7004;48.206;16.402;2023-07-29T05:47:40;2.20;;;1.90;;
13868;SDS011;7004;48.206;16.402;2023-07-29T05:50:06;2.33;;;2.00;;
13868;SDS011;7004;48.206;16.402;2023-07-29T05:52:33;2.17;;;1.97;;
13868;SDS011;7004;48.206;16.402;2023-07-29T05:55:00;2.33;;;2.13;;
13868;SDS011;7004;48.206;16.402;2023-07-29T05:57:26;2.50;;;2.20;;
13868;SDS011;7004;48.206;16.402;2023-07-29T05:59:53;2.73;;;1.70;;
13868;SDS011;7004;48.206;16.402;2023-07-29T06:02:20;2.30;;;2.10;;
13868;SDS011;7004;48.206;16.402;2023-07-29T06:04:46;2.03;;;1.83;;
13868;SDS011;7004;48.206;16.402;2023-07-29T06:07:12;2.53;;;1.90;;
13868;SDS011;7004;48.206;16.402;2023-07-29T06:09:38;2.97;;;2.17;;
13868;SDS011;7004;48.206;16.402;2023-07-29T06:12:05;1.70;;;1.60;;
13868;SDS011;7004;48.206;16.402;2023-07-29T06:14:32;2.20;;;1.80;;
13868;SDS011;7004;48.206;16.402;2023-07-29T06:16:58;1.97;;;1.77;;
13868;SDS011;7004;48.206;16.402;2023-07-29T06:19:24;3.77;;;1.80;;
13868;SDS011;7004;48.206;16.402;2023-07-29T06:21:50;1.90;;;1.70;;
13868;SDS011;7004;48.206;16.402;2023-07-29T06:24:17;1.80;;;1.70;;
13868;SDS011;7004;48.206;16.402;2023-07-29T06:26:43;3.00;;;2.00;;
13868;SDS011;7004;48.206;16.402;2023-07-29T06:29:09;2.00;;;1.80;;
13868;SDS011;7004;48.206;16.402;2023-07-29T06:31:36;2.93;;;2.00;;
13868;SDS011;7004;48.206;16.402;2023-07-29T06:34:02;1.37;;;1.27;;
13868;SDS011;7004;48.206;16.402;2023-07-29T06:36:28;1.60;;;1.47;;
13868;SDS011;7004;48.206;16.402;2023-07-29T06:38:54;2.53;;;1.73;;
13868;SDS011;7004;48.206;16.402;2023-07-29T06:41:20;3.83;;;1.50;;
13868;SDS011;7004;48.206;16.402;2023-07-29T06:43:46;1.63;;;1.50;;
13868;SDS011;7004;48.206;16.402;2023-07-29T06:46:12;2.00;;;1.80;;
13868;SDS011;7004;48.206;16.402;2023-07-29T06:48:39;1.50;;;1.40;;
13868;SDS011;7004;48.206;16.402;2023-07-29T06:51:05;1.67;;;1.57;;
13868;SDS011;7004;48.206;16.402;2023-07-29T06:53:31;1.67;;;1.53;;
13868;SDS011;7004;48.206;16.402;2023-07-29T06:55:57;3.17;;;1.77;;
13868;SDS011;7004;48.206;16.402;2023-07-29T06:58:24;1.70;;;1.50;;
13868;SDS011;7004;48.206;16.402;2023-07-29T07:00:50;1.70;;;1.60;;
13868;SDS011;7004;48.206;16.402;2023-07-29T07:03:16;1.90;;;1.70;;
13868;SDS011;7004;48.206;16.402;2023-07-29T07:05:42;2.00;;;1.63;;
13868;SDS011;7004;48.206;16.402;2023-07-29T07:08:08;1.97;;;1.57;;
13868;SDS011;7004;48.206;16.402;2023-07-29T07:10:34;2.70;;;1.60;;
13868;SDS011;7004;48.206;16.402;2023-07-29T07:13:00;2.00;;;1.80;;
13868;SDS011;7004;48.206;16.402;2023-07-29T07:15:26;1.40;;;1.30;;
13868;SDS011;7004;48.206;16.402;2023-07-29T07:17:52;1.60;;;1.33;;
13868;SDS011;7004;48.206;16.402;2023-07-29T07:20:18;1.73;;;1.63;;
13868;SDS011;7004;48.206;16.402;2023-07-29T07:22:44;2.20;;;1.80;;
13868;SDS011;7004;48.206;16.402;2023-07-29T07:25:10;1.50;;;1.40;;
13868;SDS011;7004;48.206;16.402;2023-07-29T07:27:36;1.67;;;1.57;;
13868;SDS011;7004;48.206;16.402;2023-07-29T07:30:03;1.60;;;1.50;;
13868;SDS011;7004;48.206;16.402;2023-07-29T07:32:29;1.70;;;1.60;;
13868;SDS011;7004;48.206;16.402;2023-07-29T07:34:56;2.00;;;1.73;;
13868;SDS011;7004;48.206;16.402;2023-07-29T07:37:22;1.57;;;1.30;;
13868;SDS011;7004;48.206;16.402;2023-07-29T07:39:48;1.50;;;1.40;;
13868;SDS011;7004;48.206;16.402;2023-07-29T07:42:14;1.97;;;1.73;;
13868;SDS011;7004;48.206;16.402;2023-07-29T07:44:40;1.60;;;1.50;;
13868;SDS011;7004;48.206;16.402;2023-07-29T07:47:06;2.10;;;1.60;;
13868;SDS011;7004;48.206;16.402;2023-07-29T07:49:32;1.97;;;1.63;;
13868;SDS011;7004;48.206;16.402;2023-07-29T07:51:58;2.07;;;1.73;;
13868;SDS011;7004;48.206;16.402;2023-07-29T07:54:24;1.80;;;1.70;;
13868;SDS011;7004;48.206;16.402;2023-07-29T07:56:50;1.50;;;1.40;;
13868;SDS011;7004;48.206;16.402;2023-07-29T07:59:16;1.67;;;1.53;;
13868;SDS011;7004;48.206;16.402;2023-07-29T08:01:42;2.20;;;1.40;;
13868;SDS011;7004;48.206;16.402;2023-07-29T08:04:08;2.30;;;1.40;;
13868;SDS011;7004;48.206;16.402;2023-07-29T08:06:34;1.47;;;1.37;;
13868;SDS011;7004;48.206;16.402;2023-07-29T08:09:00;1.40;;;1.30;;
13868;SDS011;7004;48.206;16.402;2023-07-29T08:11:27;1.50;;;1.40;;
13868;SDS011;7004;48.206;16.402;2023-07-29T08:13:53;1.40;;;1.30;;
13868;SDS011;7004;48.206;16.402;2023-07-29T08:16:19;1.60;;;1.50;;
13868;SDS011;7004;48.206;16.402;2023-07-29T08:18:45;1.57;;;1.47;;
13868;SDS011;7004;48.206;16.402;2023-07-29T08:21:12;1.97;;;1.53;;
13868;SDS011;7004;48.206;16.402;2023-07-29T08:23:38;2.83;;;1.70;;
13868;SDS011;7004;48.206;16.402;2023-07-29T08:26:05;4.70;;;1.30;;
13868;SDS011;7004;48.206;16.402;2023-07-29T08:28:33;1.70;;;1.60;;
13868;SDS011;7004;48.206;16.402;2023-07-29T08:31:04;1.67;;;1.40;;
13868;SDS011;7004;48.206;16.402;2023-07-29T08:33:30;1.50;;;1.40;;
13868;SDS011;7004;48.206;16.402;2023-07-29T08:35:59;1.20;;;1.10;;
13868;SDS011;7004;48.206;16.402;2023-07-29T08:38:25;1.30;;;1.20;;
13868;SDS011;7004;48.206;16.402;2023-07-29T08:43:43;1.53;;;1.43;;
13868;SDS011;7004;48.206;16.402;2023-07-29T08:46:21;1.30;;;1.20;;
13868;SDS011;7004;48.206;16.402;2023-07-29T08:48:48;1.67;;;1.30;;
13868;SDS011;7004;48.206;16.402;2023-07-29T08:51:15;1.30;;;1.20;;
13868;SDS011;7004;48.206;16.402;2023-07-29T08:53:42;1.47;;;1.37;;
13868;SDS011;7004;48.206;16.402;2023-07-29T08:56:09;1.77;;;1.40;;
13868;SDS011;7004;48.206;16.402;2023-07-29T08:58:35;1.40;;;1.20;;
13868;SDS011;7004;48.206;16.402;2023-07-29T09:01:02;1.20;;;1.10;;
13868;SDS011;7004;48.206;16.402;2023-07-29T09:03:28;1.50;;;1.40;;
13868;SDS011;7004;48.206;16.402;2023-07-29T09:05:55;1.70;;;1.40;;
13868;SDS011;7004;48.206;16.402;2023-07-29T09:08:22;1.20;;;1.10;;
13868;SDS011;7004;48.206;16.402;2023-07-29T09:10:49;1.40;;;1.30;;
13868;SDS011;7004;48.206;16.402;2023-07-29T09:13:16;1.47;;;1.37;;
13868;SDS011;7004;48.206;16.402;2023-07-29T09:15:42;1.73;;;1.23;;
13868;SDS011;7004;48.206;16.402;2023-07-29T09:18:12;1.40;;;1.30;;
13868;SDS011;7004;48.206;16.402;2023-07-29T09:20:44;1.30;;;1.20;;
13868;SDS011;7004;48.206;16.402;2023-07-29T09:23:13;1.93;;;1.40;;
13868;SDS011;7004;48.206;16.402;2023-07-29T09:25:39;1.40;;;1.30;;
13868;SDS011;7004;48.206;16.402;2023-07-29T09:28:09;1.50;;;1.40;;
13868;SDS011;7004;48.206;16.402;2023-07-29T09:30:41;1.93;;;1.30;;
13868;SDS011;7004;48.206;16.402;2023-07-29T09:33:12;1.30;;;1.20;;
13868;SDS011;7004;48.206;16.402;2023-07-29T09:35:38;1.20;;;1.10;;
13868;SDS011;7004;48.206;16.402;2023-07-29T09:38:05;1.47;;;1.30;;
13868;SDS011;7004;48.206;16.402;2023-07-29T09:40:35;1.30;;;1.20;;
13868;SDS011;7004;48.206;16.402;2023-07-29T09:43:06;1.63;;;1.37;;
13868;SDS011;7004;48.206;16.402;2023-07-29T09:45:35;1.40;;;1.30;;
13868;SDS011;7004;48.206;16.402;2023-07-29T09:48:03;1.50;;;1.30;;
13868;SDS011;7004;48.206;16.402;2023-07-29T09:50:34;1.57;;;1.23;;
13868;SDS011;7004;48.206;16.402;2023-07-29T09:53:01;1.50;;;1.40;;
13868;SDS011;7004;48.206;16.402;2023-07-29T09:55:28;1.40;;;1.30;;
13868;SDS011;7004;48.206;16.402;2023-07-29T09:57:58;1.67;;;1.57;;
13868;SDS011;7004;48.206;16.402;2023-07-29T10:00:28;1.97;;;1.30;;
13868;SDS011;7004;48.206;16.402;2023-07-29T10:02:55;1.30;;;1.20;;
13868;SDS011;7004;48.206;16.402;2023-07-29T10:05:22;1.20;;;1.10;;
13868;SDS011;7004;48.206;16.402;2023-07-29T10:07:50;1.57;;;1.47;;
13868;SDS011;7004;48.206;16.402;2023-07-29T10:10:19;1.30;;;1.20;;
13868;SDS011;7004;48.206;16.402;2023-07-29T10:12:46;1.50;;;1.40;;
13868;SDS011;7004;48.206;16.402;2023-07-29T10:15:13;1.70;;;1.33;;
13868;SDS011;7004;48.206;16.402;2023-07-29T10:17:39;1.50;;;1.40;;
13868;SDS011;7004;48.206;16.402;2023-07-29T10:20:07;1.43;;;1.30;;
13868;SDS011;7004;48.206;16.402;2023-07-29T10:22:39;1.60;;;1.30;;
13868;SDS011;7004;48.206;16.402;2023-07-29T10:25:08;2.03;;;1.30;;
13868;SDS011;7004;48.206;16.402;2023-07-29T10:30:29;1.23;;;1.13;;
13868;SDS011;7004;48.206;16.402;2023-07-29T10:32:58;1.67;;;1.33;;
13868;SDS011;7004;48.206;16.402;2023-07-29T10:35:26;1.23;;;1.10;;
13868;SDS011;7004;48.206;16.402;2023-07-29T10:37:53;1.40;;;1.30;;
13868;SDS011;7004;48.206;16.402;2023-07-29T10:40:20;1.50;;;1.30;;
13868;SDS011;7004;48.206;16.402;2023-07-29T10:43:00;1.90;;;1.50;;
13868;SDS011;7004;48.206;16.402;2023-07-29T10:45:37;2.22;;;1.50;;
13868;SDS011;7004;48.206;16.402;2023-07-29T10:48:12;1.40;;;1.30;;
13868;SDS011;7004;48.206;16.402;2023-07-29T10:54:10;1.50;;;1.40;;
13868;SDS011;7004;48.206;16.402;2023-07-29T10:56:48;1.20;;;1.10;;
13868;SDS011;7004;48.206;16.402;2023-07-29T11:01:43;1.30;;;1.20;;
13868;SDS011;7004;48.206;16.402;2023-07-29T11:04:26;1.40;;;1.30;;
13868;SDS011;7004;48.206;16.402;2023-07-29T11:15:03;1.30;;;1.20;;
13868;SDS011;7004;48.206;16.402;2023-07-29T11:18:03;1.60;;;1.50;;
13868;SDS011;7004;48.206;16.402;2023-07-29T11:20:33;1.45;;;1.35;;
13868;SDS011;7004;48.206;16.402;2023-07-29T11:23:00;1.40;;;1.30;;
13868;SDS011;7004;48.206;16.402;2023-07-29T11:25:28;1.73;;;1.50;;
13868;SDS011;7004;48.206;16.402;2023-07-29T11:27:57;1.63;;;1.52;;
13868;SDS011;7004;48.206;16.402;2023-07-29T11:30:26;3.83;;;1.33;;
13868;SDS011;7004;48.206;16.402;2023-07-29T11:32:53;1.30;;;1.20;;
13868;SDS011;7004;48.206;16.402;2023-07-29T11:35:21;1.48;;;1.38;;
13868;SDS011;7004;48.206;16.402;2023-07-29T11:37:48;1.48;;;1.38;;
13868;SDS011;7004;48.206;16.402;2023-07-29T11:40:18;2.80;;;1.50;;
13868;SDS011;7004;48.206;16.402;2023-07-29T11:42:46;1.48;;;1.38;;
13868;SDS011;7004;48.206;16.402;2023-07-29T11:45:14;1.20;;;1.10;;
13868;SDS011;7004;48.206;16.402;2023-07-29T11:47:40;1.70;;;1.60;;
13868;SDS011;7004;48.206;16.402;2023-07-29T11:50:08;1.50;;;1.40;;
13868;SDS011;7004;48.206;16.402;2023-07-29T11:52:40;1.50;;;1.40;;
13868;SDS011;7004;48.206;16.402;2023-07-29T11:55:11;1.93;;;1.50;;
13868;SDS011;7004;48.206;16.402;2023-07-29T11:57:39;1.43;;;1.33;;
13868;SDS011;7004;48.206;16.402;2023-07-29T12:00:08;2.53;;;1.27;;
13868;SDS011;7004;48.206;16.402;2023-07-29T12:02:40;1.40;;;1.30;;
13868;SDS011;7004;48.206;16.402;2023-07-29T12:05:11;2.13;;;1.67;;
13868;SDS011;7004;48.206;16.402;2023-07-29T12:07:39;1.70;;;1.60;;
13868;SDS011;7004;48.206;16.402;2023-07-29T12:10:09;1.40;;;1.30;;
13868;SDS011;7004;48.206;16.402;2023-07-29T12:12:45;1.57;;;1.47;;
13868;SDS011;7004;48.206;16.402;2023-07-29T12:15:25;1.53;;;1.43;;
13868;SDS011;7004;48.206;16.402;2023-07-29T12:17:56;1.40;;;1.30;;
13868;SDS011;7004;48.206;16.402;2023-07-29T12:20:25;1.57;;;1.47;;
13868;SDS011;7004;48.206;16.402;2023-07-29T12:22:53;1.97;;;1.33;;
13868;SDS011;7004;48.206;16.402;2023-07-29T12:25:26;1.43;;;1.33;;
13868;SDS011;7004;48.206;16.402;2023-07-29T12:27:53;1.73;;;1.63;;
13868;SDS011;7004;48.206;16.402;2023-07-29T12:30:21;1.70;;;1.60;;
13868;SDS011;7004;48.206;16.402;2023-07-29T12:32:48;3.17;;;1.77;;
13868;SDS011;7004;48.206;16.402;2023-07-29T12:35:14;2.10;;;1.90;;
13868;SDS011;7004;48.206;16.402;2023-07-29T12:37:40;1.60;;;1.50;;
13868;SDS011;7004;48.206;16.402;2023-07-29T12:40:21;1.57;;;1.47;;
13868;SDS011;7004;48.206;16.402;2023-07-29T12:42:49;1.63;;;1.52;;
13868;SDS011;7004;48.206;16.402;2023-07-29T12:45:16;2.13;;;1.88;;
13868;SDS011;7004;48.206;16.402;2023-07-29T12:47:43;1.70;;;1.60;;
13868;SDS011;7004;48.206;16.402;2023-07-29T12:50:10;2.30;;;1.55;;
13868;SDS011;7004;48.206;16.402;2023-07-29T12:52:36;2.00;;;1.80;;
13868;SDS011;7004;48.206;16.402;2023-07-29T12:55:03;2.50;;;1.70;;
13868;SDS011;7004;48.206;16.402;2023-07-29T12:57:29;4.07;;;1.90;;
13868;SDS011;7004;48.206;16.402;2023-07-29T12:59:55;2.70;;;2.20;;
13868;SDS011;7004;48.206;16.402;2023-07-29T13:02:21;1.88;;;1.77;;
13868;SDS011;7004;48.206;16.402;2023-07-29T13:04:48;2.00;;;1.90;;
13868;SDS011;7004;48.206;16.402;2023-07-29T13:07:14;2.10;;;1.90;;
13868;SDS011;7004;48.206;16.402;2023-07-29T13:09:40;3.13;;;2.03;;
13868;SDS011;7004;48.206;16.402;2023-07-29T13:12:06;2.40;;;2.03;;
13868;SDS011;7004;48.206;16.402;2023-07-29T13:14:32;2.47;;;1.80;;
13868;SDS011;7004;48.206;16.402;2023-07-29T13:16:58;1.80;;;1.70;;
13868;SDS011;7004;48.206;16.402;2023-07-29T13:19:24;1.70;;;1.60;;
13868;SDS011;7004;48.206;16.402;2023-07-29T13:21:50;1.75;;;1.63;;
13868;SDS011;7004;48.206;16.402;2023-07-29T13:24:16;1.60;;;1.37;;
13868;SDS011;7004;48.206;16.402;2023-07-29T13:26:42;1.73;;;1.63;;
13868;SDS011;7004;48.206;16.402;2023-07-29T13:29:08;1.63;;;1.53;;
13868;SDS011;7004;48.206;16.402;2023-07-29T13:31:34;1.70;;;1.60;;
13868;SDS011;7004;48.206;16.402;2023-07-29T13:34:01;1.50;;;1.40;;
13868;SDS011;7004;48.206;16.402;2023-07-29T13:36:27;1.50;;;1.40;;
13868;SDS011;7004;48.206;16.402;2023-07-29T13:38:53;1.70;;;1.60;;
13868;SDS011;7004;48.206;16.402;2023-07-29T13:41:19;1.60;;;1.50;;
13868;SDS011;7004;48.206;16.402;2023-07-29T13:43:45;2.80;;;1.90;;
13868;SDS011;7004;48.206;16.402;2023-07-29T13:46:11;1.70;;;1.60;;
13868;SDS011;7004;48.206;16.402;2023-07-29T13:48:37;1.60;;;1.50;;
13868;SDS011;7004;48.206;16.402;2023-07-29T13:51:03;1.70;;;1.60;;
13868;SDS011;7004;48.206;16.402;2023-07-29T13:53:30;1.53;;;1.43;;
13868;SDS011;7004;48.206;16.402;2023-07-29T13:55:56;1.90;;;1.80;;
13868;SDS011;7004;48.206;16.402;2023-07-29T13:58:22;1.70;;;1.60;;
13868;SDS011;7004;48.206;16.402;2023-07-29T14:00:48;1.93;;;1.80;;
13868;SDS011;7004;48.206;16.402;2023-07-29T14:03:14;1.77;;;1.60;;
13868;SDS011;7004;48.206;16.402;2023-07-29T14:05:40;3.50;;;1.60;;
13868;SDS011;7004;48.206;16.402;2023-07-29T14:08:06;4.47;;;1.53;;
13868;SDS011;7004;48.206;16.402;2023-07-29T14:10:32;1.80;;;1.70;;
13868;SDS011;7004;48.206;16.402;2023-07-29T14:12:59;1.90;;;1.67;;
13868;SDS011;7004;48.206;16.402;2023-07-29T14:15:25;1.97;;;1.63;;
13868;SDS011;7004;48.206;16.402;2023-07-29T14:17:53;2.00;;;1.80;;
13868;SDS011;7004;48.206;16.402;2023-07-29T14:20:19;3.03;;;1.80;;
13868;SDS011;7004;48.206;16.402;2023-07-29T14:22:45;2.57;;;2.00;;
13868;SDS011;7004;48.206;16.402;2023-07-29T14:25:12;1.70;;;1.60;;
13868;SDS011;7004;48.206;16.402;2023-07-29T14:27:39;2.13;;;1.80;;
13868;SDS011;7004;48.206;16.402;2023-07-29T14:30:06;1.80;;;1.70;;
13868;SDS011;7004;48.206;16.402;2023-07-29T14:32:33;1.70;;;1.60;;
13868;SDS011;7004;48.206;16.402;2023-07-29T14:34:59;2.03;;;1.83;;
13868;SDS011;7004;48.206;16.402;2023-07-29T14:37:31;1.70;;;1.60;;
13868;SDS011;7004;48.206;16.402;2023-07-29T14:39:58;2.40;;;2.00;;
13868;SDS011;7004;48.206;16.402;2023-07-29T14:42:25;1.93;;;1.73;;
13868;SDS011;7004;48.206;16.402;2023-07-29T14:44:52;1.97;;;1.80;;
13868;SDS011;7004;48.206;16.402;2023-07-29T14:47:19;2.10;;;1.90;;
13868;SDS011;7004;48.206;16.402;2023-07-29T14:49:45;1.90;;;1.70;;
13868;SDS011;7004;48.206;16.402;2023-07-29T14:52:11;2.10;;;1.90;;
13868;SDS011;7004;48.206;16.402;2023-07-29T14:54:38;1.90;;;1.70;;
13868;SDS011;7004;48.206;16.402;2023-07-29T14:57:05;1.80;;;1.70;;
13868;SDS011;7004;48.206;16.402;2023-07-29T14:59:32;1.97;;;1.83;;
13868;SDS011;7004;48.206;16.402;2023-07-29T15:01:58;2.07;;;1.90;;
13868;SDS011;7004;48.206;16.402;2023-07-29T15:04:24;2.00;;;1.80;;
13868;SDS011;7004;48.206;16.402;2023-07-29T15:06:50;2.10;;;1.90;;
13868;SDS011;7004;48.206;16.402;2023-07-29T15:09:17;2.67;;;2.27;;
13868;SDS011;7004;48.206;16.402;2023-07-29T15:11:43;2.10;;;1.90;;
13868;SDS011;7004;48.206;16.402;2023-07-29T15:14:09;2.03;;;1.83;;
13868;SDS011;7004;48.206;16.402;2023-07-29T15:16:35;2.20;;;2.00;;
13868;SDS011;7004;48.206;16.402;2023-07-29T15:19:04;2.30;;;2.10;;
13868;SDS011;7004;48.206;16.402;2023-07-29T15:21:30;2.33;;;1.80;;